Time;durP1;ratioP1;P1;durP2;ratioP2;P2;SDS_P1;SDS_P2;PMS_P1;PMS_P2;Temp;Humidity;BMP_temperature;BMP_pressure;BME280_temperature;BME280_humidity;BME280_pressure;Samples;Min_cycle;Max_cycle;Signal;HPM_P1;HPM_P2
2021/12/27 00:02:25;;;;;;;54.30;20.65;;;-0.10;99.90;;;;;;5084465;28;20070;-69
2021/12/27 00:04:51;;;;;;;63.38;21.70;;;-0.10;99.90;;;;;;5085652;28;20036;-70
2021/12/27 00:07:16;;;;;;;51.13;19.95;;;-0.10;99.90;;;;;;5068108;28;20089;-70
2021/12/27 00:09:42;;;;;;;56.58;20.63;;;-0.10;99.90;;;;;;5090594;28;20048;-70
2021/12/27 00:12:08;;;;;;;57.10;21.88;;;0.00;99.90;;;;;;5086404;28;20044;-69
2021/12/27 00:14:34;;;;;;;52.92;21.83;;;0.00;99.90;;;;;;5073881;28;20044;-70
2021/12/27 00:17:00;;;;;;;55.17;22.00;;;0.00;99.90;;;;;;5087672;28;20394;-69
2021/12/27 00:19:25;;;;;;;51.42;20.45;;;0.00;99.90;;;;;;5088196;28;20319;-71
2021/12/27 00:21:51;;;;;;;55.83;20.98;;;0.10;99.90;;;;;;5076813;28;20043;-70
2021/12/27 00:24:16;;;;;;;55.35;20.58;;;0.10;99.90;;;;;;5080586;28;20036;-70
2021/12/27 00:26:44;;;;;;;50.65;20.35;;;0.10;99.90;;;;;;5073316;28;21271;-70
2021/12/27 00:29:10;;;;;;;50.47;19.83;;;0.20;99.90;;;;;;5084870;28;20048;-73
2021/12/27 00:31:35;;;;;;;55.13;20.83;;;0.10;99.90;;;;;;5088204;28;20038;-70
2021/12/27 00:34:01;;;;;;;59.15;22.02;;;0.20;99.90;;;;;;5085589;28;20036;-71
2021/12/27 00:36:26;;;;;;;55.70;21.75;;;0.20;99.90;;;;;;5088832;28;20040;-71
2021/12/27 00:38:52;;;;;;;61.25;21.77;;;0.20;99.90;;;;;;5091632;28;20177;-71
2021/12/27 00:41:17;;;;;;;57.80;22.45;;;0.20;99.90;;;;;;5091180;28;20044;-71
2021/12/27 00:43:44;;;;;;;53.88;21.10;;;0.20;99.90;;;;;;5083762;28;20043;-71
2021/12/27 00:46:09;;;;;;;58.67;20.90;;;0.30;99.90;;;;;;5084378;28;20495;-70
2021/12/27 00:48:35;;;;;;;56.95;21.92;;;0.30;99.90;;;;;;5088723;28;20047;-71
2021/12/27 00:51:00;;;;;;;54.58;20.45;;;0.30;99.90;;;;;;5086375;28;20045;-71
2021/12/27 00:53:26;;;;;;;59.90;22.73;;;0.30;99.90;;;;;;5091296;28;20028;-70
2021/12/27 00:55:52;;;;;;;63.70;21.52;;;0.30;99.90;;;;;;5090889;28;20127;-71
2021/12/27 00:58:17;;;;;;;58.78;22.42;;;0.30;99.90;;;;;;5081536;28;20506;-71
2021/12/27 01:00:43;;;;;;;59.55;21.52;;;0.40;99.90;;;;;;5088045;28;20038;-71
2021/12/27 01:03:08;;;;;;;53.85;21.20;;;0.30;99.90;;;;;;5089379;28;20042;-71
2021/12/27 01:05:34;;;;;;;57.63;21.40;;;0.40;99.90;;;;;;5095426;28;20039;-69
2021/12/27 01:08:00;;;;;;;56.72;21.77;;;0.40;99.90;;;;;;5092927;28;20166;-71
2021/12/27 01:11:00;;;;;;;60.40;22.30;;;0.40;99.90;;;;;;5088482;28;20044;-72
2021/12/27 01:13:44;;;;;;;55.10;20.92;;;0.40;99.90;;;;;;5087003;28;20100;-71
2021/12/27 01:16:13;;;;;;;65.25;22.17;;;0.40;99.90;;;;;;5087886;28;20048;-72
2021/12/27 01:18:48;;;;;;;61.13;23.40;;;0.40;99.90;;;;;;5087697;28;20105;-71
2021/12/27 01:21:19;;;;;;;62.40;23.25;;;0.40;99.90;;;;;;5078470;28;20044;-71
2021/12/27 01:23:46;;;;;;;65.25;24.10;;;0.40;99.90;;;;;;5087781;28;20036;-72
2021/12/27 01:26:12;;;;;;;65.78;23.33;;;0.40;99.90;;;;;;5087144;28;20039;-72
2021/12/27 01:28:39;;;;;;;65.50;23.23;;;0.50;99.90;;;;;;5089047;28;20036;-72
2021/12/27 01:31:05;;;;;;;63.42;23.08;;;0.50;99.90;;;;;;5092838;28;20036;-71
2021/12/27 01:33:31;;;;;;;64.20;23.63;;;0.50;99.90;;;;;;5090198;28;20035;-72
2021/12/27 01:35:58;;;;;;;64.53;23.10;;;0.50;99.90;;;;;;5088469;28;20033;-72
2021/12/27 01:38:23;;;;;;;61.13;22.75;;;0.50;99.90;;;;;;5089628;28;20397;-72
2021/12/27 01:40:52;;;;;;;64.88;24.77;;;0.50;99.90;;;;;;5089397;28;20040;-71
2021/12/27 01:43:24;;;;;;;68.50;23.65;;;0.50;99.90;;;;;;5074937;28;20043;-72
2021/12/27 01:46:00;;;;;;;66.55;23.13;;;0.50;99.90;;;;;;5085373;28;20097;-72
2021/12/27 01:48:31;;;;;;;66.47;23.50;;;0.50;99.90;;;;;;5089756;28;20076;-72
2021/12/27 01:51:00;;;;;;;69.75;25.33;;;0.50;99.90;;;;;;5099288;28;20418;-72
2021/12/27 01:53:29;;;;;;;66.07;23.17;;;0.50;99.90;;;;;;5087323;28;20040;-71
2021/12/27 01:55:56;;;;;;;68.97;24.70;;;0.50;99.90;;;;;;5089843;28;20043;-71
2021/12/27 01:58:22;;;;;;;70.38;24.27;;;0.50;99.90;;;;;;5086452;28;20139;-71
2021/12/27 02:00:51;;;;;;;71.90;24.83;;;0.50;99.90;;;;;;5086957;28;20036;-72
2021/12/27 02:03:19;;;;;;;68.22;24.75;;;0.50;99.90;;;;;;5088298;28;20036;-71
2021/12/27 02:05:44;;;;;;;68.82;24.92;;;0.50;99.90;;;;;;5071406;28;20054;-71
2021/12/27 02:08:11;;;;;;;67.78;25.25;;;0.60;99.90;;;;;;5070106;28;20040;-71
2021/12/27 02:10:37;;;;;;;66.75;23.88;;;0.50;99.90;;;;;;5088342;28;20471;-71
2021/12/27 02:13:03;;;;;;;77.03;27.00;;;0.50;99.90;;;;;;5088442;28;20047;-72
2021/12/27 02:15:29;;;;;;;73.28;25.15;;;0.60;99.90;;;;;;5088533;28;20039;-71
2021/12/27 02:17:55;;;;;;;70.03;23.88;;;0.60;99.90;;;;;;5096049;28;20032;-71
2021/12/27 02:20:33;;;;;;;68.68;24.73;;;0.60;99.90;;;;;;5087089;28;20110;-71
2021/12/27 02:23:02;;;;;;;72.20;26.02;;;0.60;99.90;;;;;;5092590;28;20028;-72
2021/12/27 02:25:33;;;;;;;71.28;25.02;;;0.60;99.90;;;;;;5082881;28;20060;-72
2021/12/27 02:28:02;;;;;;;70.70;25.33;;;0.60;99.90;;;;;;5104850;27;20039;-71
2021/12/27 02:30:29;;;;;;;68.05;24.30;;;0.60;99.90;;;;;;5085250;28;20036;-72
2021/12/27 02:32:57;;;;;;;71.45;25.50;;;0.60;99.90;;;;;;5069214;28;20077;-73
2021/12/27 02:35:26;;;;;;;70.60;25.45;;;0.60;99.90;;;;;;5088861;28;20149;-72
2021/12/27 02:37:52;;;;;;;73.28;26.08;;;0.60;99.90;;;;;;5086965;28;20036;-72
2021/12/27 02:40:22;;;;;;;70.80;25.27;;;0.60;99.90;;;;;;5085709;28;20032;-72
2021/12/27 02:43:09;;;;;;;74.38;26.15;;;0.60;99.90;;;;;;5084878;28;20050;-72
2021/12/27 02:45:41;;;;;;;79.78;26.45;;;0.60;99.90;;;;;;5087796;28;20032;-71
2021/12/27 02:48:07;;;;;;;75.82;26.77;;;0.60;99.90;;;;;;5086367;28;20047;-72
2021/12/27 02:50:35;;;;;;;83.88;26.92;;;0.60;99.90;;;;;;5086586;28;21424;-72
2021/12/27 02:53:01;;;;;;;78.78;26.23;;;0.60;99.90;;;;;;5098397;28;20044;-71
2021/12/27 02:55:27;;;;;;;81.50;26.98;;;0.60;99.90;;;;;;5077254;28;20051;-72
2021/12/27 02:57:53;;;;;;;73.25;26.13;;;0.60;99.90;;;;;;5065255;28;20043;-72
2021/12/27 03:00:22;;;;;;;77.50;26.83;;;0.60;99.90;;;;;;5086371;28;20552;-72
2021/12/27 03:02:50;;;;;;;78.50;26.83;;;0.60;99.90;;;;;;5085358;28;20051;-72
2021/12/27 03:05:17;;;;;;;84.07;27.55;;;0.60;99.90;;;;;;5086874;28;20040;-72
2021/12/27 03:07:45;;;;;;;89.70;28.08;;;0.60;99.90;;;;;;5088570;28;20043;-72
2021/12/27 03:10:11;;;;;;;80.93;27.83;;;0.60;99.90;;;;;;5084550;28;20036;-71
2021/12/27 03:12:38;;;;;;;74.40;26.65;;;0.60;99.90;;;;;;5080603;28;20044;-72
2021/12/27 03:15:09;;;;;;;78.65;26.27;;;0.60;99.90;;;;;;5079731;28;20051;-72
2021/12/27 03:17:35;;;;;;;79.30;27.48;;;0.60;99.90;;;;;;5076174;28;20127;-72
2021/12/27 03:20:05;;;;;;;76.93;27.58;;;0.60;99.90;;;;;;5091832;28;20058;-72
2021/12/27 03:22:31;;;;;;;86.03;29.23;;;0.60;99.90;;;;;;5105280;27;20040;-72
2021/12/27 03:24:57;;;;;;;83.93;29.80;;;0.60;99.90;;;;;;5089225;28;20067;-72
2021/12/27 03:27:22;;;;;;;79.85;26.73;;;0.60;99.90;;;;;;5091780;28;20070;-72
2021/12/27 03:29:48;;;;;;;86.18;28.75;;;0.60;99.90;;;;;;5084830;28;20031;-72
2021/12/27 03:32:14;;;;;;;78.40;27.67;;;0.60;99.90;;;;;;5086081;28;20105;-72
2021/12/27 03:34:52;;;;;;;77.80;26.73;;;0.60;99.90;;;;;;5085856;28;20527;-71
2021/12/27 03:37:18;;;;;;;80.85;27.10;;;0.70;99.90;;;;;;5070708;28;20028;-72
2021/12/27 03:39:43;;;;;;;87.43;27.98;;;0.60;99.90;;;;;;5069039;28;20391;-72
2021/12/27 03:42:09;;;;;;;82.45;28.15;;;0.60;99.90;;;;;;5069246;28;20044;-72
2021/12/27 03:44:35;;;;;;;85.07;27.77;;;0.70;99.90;;;;;;5087617;28;20028;-72
2021/12/27 03:47:00;;;;;;;90.75;28.23;;;0.70;99.90;;;;;;5085352;28;20036;-72
2021/12/27 03:49:26;;;;;;;88.25;28.77;;;0.70;99.90;;;;;;5086413;28;20429;-72
2021/12/27 03:51:51;;;;;;;85.15;28.30;;;0.70;99.90;;;;;;5083620;28;20040;-72
2021/12/27 03:54:17;;;;;;;79.90;28.52;;;0.70;99.90;;;;;;5088358;28;20050;-72
2021/12/27 03:56:42;;;;;;;78.82;27.83;;;0.70;99.90;;;;;;5086625;28;20041;-73
2021/12/27 03:59:21;;;;;;;88.72;29.00;;;0.70;99.90;;;;;;5076852;28;20443;-71
2021/12/27 04:01:47;;;;;;;78.97;27.23;;;0.70;99.90;;;;;;5089747;28;20036;-72
2021/12/27 04:04:13;;;;;;;82.65;28.83;;;0.70;99.90;;;;;;5084774;28;20524;-72
2021/12/27 04:06:38;;;;;;;95.18;29.10;;;0.70;99.90;;;;;;5087644;28;20048;-72
2021/12/27 04:09:04;;;;;;;86.00;30.40;;;0.70;99.90;;;;;;5092285;28;20161;-72
2021/12/27 04:11:31;;;;;;;85.40;28.77;;;0.80;99.90;;;;;;5086894;28;20044;-72
2021/12/27 04:14:02;;;;;;;88.70;28.35;;;0.70;99.90;;;;;;5086335;28;20115;-72
2021/12/27 04:16:28;;;;;;;83.15;29.20;;;0.70;99.90;;;;;;5083128;28;20082;-72
2021/12/27 04:18:53;;;;;;;88.97;28.52;;;0.70;99.90;;;;;;5075598;28;20069;-72
2021/12/27 04:21:19;;;;;;;88.97;28.17;;;0.70;99.90;;;;;;5079274;28;20322;-72
2021/12/27 04:23:44;;;;;;;88.22;28.73;;;0.70;99.90;;;;;;5097446;28;20398;-72
2021/12/27 04:26:10;;;;;;;86.28;29.10;;;0.70;99.90;;;;;;5093339;28;20032;-71
2021/12/27 04:28:35;;;;;;;83.78;29.48;;;0.70;99.90;;;;;;5083094;28;20039;-72
2021/12/27 04:31:01;;;;;;;89.03;28.88;;;0.80;99.90;;;;;;5093706;28;20036;-72
2021/12/27 04:33:27;;;;;;;88.03;28.13;;;0.70;99.90;;;;;;5099640;28;20172;-72
2021/12/27 04:35:52;;;;;;;84.68;28.17;;;0.70;99.90;;;;;;5104562;28;20044;-72
2021/12/27 04:38:18;;;;;;;88.97;28.92;;;0.70;99.90;;;;;;5090665;28;20032;-71
2021/12/27 04:40:46;;;;;;;90.35;29.77;;;0.80;99.90;;;;;;5089125;28;20036;-72
2021/12/27 04:43:17;;;;;;;83.80;29.80;;;0.80;99.90;;;;;;5088070;28;20032;-72
2021/12/27 04:45:44;;;;;;;94.45;29.98;;;0.80;99.90;;;;;;5098540;28;20079;-72
2021/12/27 04:48:11;;;;;;;92.85;27.83;;;0.80;99.90;;;;;;5092989;28;20498;-72
2021/12/27 04:50:37;;;;;;;84.93;29.02;;;0.80;99.90;;;;;;5094135;28;20044;-72
2021/12/27 04:53:05;;;;;;;86.47;28.75;;;0.80;99.90;;;;;;5090671;28;20090;-72
2021/12/27 04:55:32;;;;;;;90.38;29.40;;;0.80;99.90;;;;;;5065299;28;20094;-72
2021/12/27 04:57:58;;;;;;;92.22;30.65;;;0.80;99.90;;;;;;5087312;28;20425;-72
2021/12/27 05:00:24;;;;;;;94.88;29.65;;;0.80;99.90;;;;;;5092771;28;20036;-72
2021/12/27 05:02:49;;;;;;;89.28;29.50;;;0.80;99.90;;;;;;5087060;28;20051;-71
2021/12/27 05:05:15;;;;;;;93.93;30.10;;;0.80;99.90;;;;;;5097790;28;20038;-72
2021/12/27 05:07:41;;;;;;;88.57;29.40;;;0.80;99.90;;;;;;5089730;28;20504;-72
2021/12/27 05:10:07;;;;;;;97.22;31.90;;;0.80;99.90;;;;;;5087359;28;20040;-72
2021/12/27 05:12:33;;;;;;;88.85;29.67;;;0.80;99.90;;;;;;5084345;28;20050;-72
2021/12/27 05:14:58;;;;;;;95.07;30.65;;;0.80;99.90;;;;;;5092509;28;20036;-71
2021/12/27 05:17:24;;;;;;;101.30;32.05;;;0.80;99.90;;;;;;5096326;28;20052;-72
2021/12/27 05:19:50;;;;;;;98.20;30.70;;;0.80;99.90;;;;;;5085916;28;20040;-72
2021/12/27 05:22:15;;;;;;;95.45;29.25;;;0.80;99.90;;;;;;5089265;28;20085;-72
2021/12/27 05:24:41;;;;;;;94.30;29.35;;;0.80;99.90;;;;;;5071249;28;20047;-72
2021/12/27 05:27:09;;;;;;;100.13;30.65;;;0.80;99.90;;;;;;5094335;28;20036;-72
2021/12/27 05:29:35;;;;;;;97.43;30.13;;;0.80;99.90;;;;;;5089567;28;20075;-72
2021/12/27 05:32:01;;;;;;;100.07;30.92;;;0.80;99.90;;;;;;5096147;28;20474;-72
2021/12/27 05:34:28;;;;;;;100.30;31.63;;;0.80;99.90;;;;;;5087194;28;20517;-73
2021/12/27 05:36:54;;;;;;;98.82;30.92;;;0.80;99.90;;;;;;5081547;28;20052;-73
2021/12/27 05:39:22;;;;;;;96.63;30.13;;;0.80;99.90;;;;;;5090954;28;20122;-72
2021/12/27 05:41:48;;;;;;;95.72;31.20;;;0.80;99.90;;;;;;5083247;28;20045;-73
2021/12/27 05:44:14;;;;;;;94.93;31.38;;;0.80;99.90;;;;;;5087826;28;20063;-74
2021/12/27 05:46:40;;;;;;;93.55;30.63;;;0.90;99.90;;;;;;5084282;28;20469;-71
2021/12/27 05:49:06;;;;;;;102.18;31.65;;;0.90;99.90;;;;;;5088037;28;20136;-73
2021/12/27 05:51:32;;;;;;;100.22;30.67;;;0.90;99.90;;;;;;5093783;28;20032;-72
2021/12/27 05:53:57;;;;;;;112.75;32.42;;;0.90;99.90;;;;;;5083817;28;20467;-72
2021/12/27 05:56:23;;;;;;;107.85;32.15;;;0.90;99.90;;;;;;5093741;28;20036;-72
2021/12/27 05:58:48;;;;;;;108.22;31.48;;;0.90;99.90;;;;;;5085950;28;20085;-72
2021/12/27 06:01:14;;;;;;;96.82;31.00;;;0.90;99.90;;;;;;5070174;28;20037;-72
2021/12/27 06:03:40;;;;;;;101.28;31.23;;;0.90;99.90;;;;;;5093517;28;20051;-72
2021/12/27 06:06:07;;;;;;;99.15;31.63;;;0.90;99.90;;;;;;5088770;28;20125;-72
2021/12/27 06:08:32;;;;;;;101.68;31.63;;;0.90;99.90;;;;;;5087288;28;20036;-73
2021/12/27 06:10:58;;;;;;;108.30;31.05;;;0.90;99.90;;;;;;5089101;28;20395;-73
2021/12/27 06:13:23;;;;;;;111.35;32.63;;;0.90;99.90;;;;;;5084880;28;20035;-71
2021/12/27 06:15:49;;;;;;;113.10;34.28;;;0.90;99.90;;;;;;5074840;28;20044;-72
2021/12/27 06:18:15;;;;;;;106.60;32.17;;;0.90;99.90;;;;;;5093319;28;20047;-74
2021/12/27 06:20:41;;;;;;;111.90;33.55;;;0.90;99.90;;;;;;5099023;28;20126;-72
2021/12/27 06:23:06;;;;;;;104.95;32.95;;;1.00;99.90;;;;;;5095030;28;20032;-72
2021/12/27 06:25:32;;;;;;;119.32;33.28;;;0.90;99.90;;;;;;5087212;28;20037;-73
2021/12/27 06:27:58;;;;;;;115.55;32.35;;;1.00;99.90;;;;;;5089515;28;20048;-72
2021/12/27 06:30:23;;;;;;;109.43;33.70;;;1.00;99.90;;;;;;5092448;28;20033;-73
2021/12/27 06:32:49;;;;;;;109.78;33.03;;;1.00;99.90;;;;;;5094301;28;20051;-72
2021/12/27 06:35:16;;;;;;;117.68;32.65;;;1.00;99.90;;;;;;5087480;28;20056;-72
2021/12/27 06:37:43;;;;;;;119.88;34.78;;;1.00;99.90;;;;;;5088553;28;20051;-72
2021/12/27 06:40:10;;;;;;;112.50;33.20;;;1.00;99.90;;;;;;5088724;28;20043;-73
2021/12/27 06:42:36;;;;;;;125.15;33.78;;;1.00;99.90;;;;;;5088862;28;20031;-73
2021/12/27 06:45:02;;;;;;;119.20;32.55;;;1.00;99.90;;;;;;5087882;28;20040;-73
2021/12/27 06:47:28;;;;;;;110.95;33.38;;;1.00;99.90;;;;;;5088398;28;20040;-73
2021/12/27 06:49:54;;;;;;;114.55;31.48;;;1.00;99.90;;;;;;5092206;28;20410;-74
2021/12/27 06:52:19;;;;;;;124.45;34.60;;;1.00;99.90;;;;;;5087993;28;20048;-74
2021/12/27 06:54:45;;;;;;;127.80;32.92;;;1.00;99.90;;;;;;5089701;28;20051;-72
2021/12/27 06:57:11;;;;;;;121.43;33.95;;;1.00;99.90;;;;;;5101632;28;20048;-72
2021/12/27 06:59:37;;;;;;;137.05;34.70;;;1.00;99.90;;;;;;5081897;28;20044;-72
2021/12/27 07:02:03;;;;;;;137.68;34.22;;;1.00;99.90;;;;;;5071247;28;20032;-72
2021/12/27 07:04:30;;;;;;;132.80;35.33;;;1.00;99.90;;;;;;5088263;28;20028;-72
2021/12/27 07:06:56;;;;;;;153.05;34.80;;;1.00;99.90;;;;;;5096348;28;20395;-73
2021/12/27 07:09:22;;;;;;;129.63;33.88;;;1.00;99.90;;;;;;5090821;28;20047;-74
2021/12/27 07:11:47;;;;;;;141.30;34.05;;;1.00;99.90;;;;;;5105518;28;20110;-71
2021/12/27 07:14:13;;;;;;;146.50;34.03;;;1.00;99.90;;;;;;5085784;28;20031;-74
2021/12/27 07:16:39;;;;;;;134.38;33.30;;;1.00;99.90;;;;;;5083035;28;20041;-74
2021/12/27 07:19:04;;;;;;;139.95;34.08;;;1.00;99.90;;;;;;5094973;28;20036;-73
2021/12/27 07:21:29;;;;;;;132.00;36.17;;;1.00;99.90;;;;;;5065326;28;20406;-74
2021/12/27 07:23:55;;;;;;;131.38;33.80;;;1.00;99.90;;;;;;5092439;28;20036;-70
2021/12/27 07:26:21;;;;;;;140.20;36.15;;;1.00;99.90;;;;;;5087792;28;20131;-73
2021/12/27 07:28:46;;;;;;;156.27;36.08;;;1.00;99.90;;;;;;5097652;28;20433;-73
2021/12/27 07:31:12;;;;;;;146.57;35.90;;;1.00;99.90;;;;;;5087986;28;20039;-73
2021/12/27 07:33:37;;;;;;;132.93;34.72;;;1.00;99.90;;;;;;5088190;28;20490;-73
2021/12/27 07:36:05;;;;;;;145.52;34.83;;;1.10;99.90;;;;;;5086248;28;20115;-73
2021/12/27 07:38:31;;;;;;;141.40;34.55;;;1.10;99.90;;;;;;5087578;28;20032;-73
2021/12/27 07:40:57;;;;;;;137.93;34.92;;;1.10;99.90;;;;;;5087263;28;20089;-74
2021/12/27 07:43:22;;;;;;;157.82;37.75;;;1.10;99.90;;;;;;5090928;28;20040;-73
2021/12/27 07:45:48;;;;;;;164.15;36.30;;;1.10;99.90;;;;;;5088361;28;20028;-72
2021/12/27 07:48:14;;;;;;;149.15;34.05;;;1.10;99.90;;;;;;5071257;28;20036;-73
2021/12/27 07:50:39;;;;;;;144.55;38.42;;;1.10;99.90;;;;;;5085777;28;20397;-70
2021/12/27 07:53:05;;;;;;;145.57;34.67;;;1.10;99.90;;;;;;5088615;28;20036;-72
2021/12/27 07:55:31;;;;;;;150.60;35.05;;;1.10;99.90;;;;;;5082417;28;20037;-73
2021/12/27 07:57:58;;;;;;;147.70;37.30;;;1.10;99.90;;;;;;5094549;28;20052;-73
2021/12/27 08:00:25;;;;;;;149.93;34.08;;;1.10;99.90;;;;;;5080133;28;20071;-73
2021/12/27 08:02:52;;;;;;;147.52;34.58;;;1.20;99.90;;;;;;5091011;28;20048;-73
2021/12/27 08:05:18;;;;;;;166.98;36.30;;;1.20;99.90;;;;;;5082064;28;20033;-73
2021/12/27 08:07:43;;;;;;;150.43;35.45;;;1.20;99.90;;;;;;5086668;28;20040;-71
2021/12/27 08:10:10;;;;;;;135.00;34.08;;;1.20;99.90;;;;;;5093203;28;20044;-72
2021/12/27 08:12:37;;;;;;;144.70;35.30;;;1.20;99.90;;;;;;5074507;28;20036;-73
2021/12/27 08:15:04;;;;;;;143.18;34.40;;;1.20;99.90;;;;;;5095597;28;20063;-73
2021/12/27 08:17:30;;;;;;;144.25;34.28;;;1.20;99.90;;;;;;5101095;27;20044;-73
2021/12/27 08:19:55;;;;;;;144.75;34.78;;;1.20;99.90;;;;;;5090293;28;20039;-73
2021/12/27 08:22:21;;;;;;;137.73;33.90;;;1.20;99.90;;;;;;5090723;28;20035;-73
2021/12/27 08:24:46;;;;;;;130.88;32.55;;;1.30;99.90;;;;;;5091876;28;20471;-72
2021/12/27 08:27:12;;;;;;;128.85;32.63;;;1.30;99.90;;;;;;5086600;28;20139;-73
2021/12/27 08:29:37;;;;;;;128.40;33.13;;;1.30;99.90;;;;;;5098537;28;20040;-73
2021/12/27 08:32:04;;;;;;;144.00;33.47;;;1.30;99.90;;;;;;5102023;28;20043;-73
2021/12/27 08:34:31;;;;;;;124.70;33.05;;;1.30;99.90;;;;;;5084457;28;20058;-73
2021/12/27 08:36:57;;;;;;;132.32;32.88;;;1.30;99.90;;;;;;5090196;28;20085;-73
2021/12/27 08:39:24;;;;;;;136.80;32.63;;;1.30;99.90;;;;;;5088850;28;20742;-72
2021/12/27 08:41:50;;;;;;;140.25;33.80;;;1.40;99.90;;;;;;5083782;28;20261;-73
2021/12/27 08:44:15;;;;;;;136.98;34.92;;;1.40;99.90;;;;;;5090148;28;20052;-72
2021/12/27 08:46:42;;;;;;;148.45;36.08;;;1.40;99.90;;;;;;5090255;28;20040;-73
2021/12/27 08:49:09;;;;;;;144.85;33.33;;;1.40;99.90;;;;;;5100076;28;20040;-72
2021/12/27 08:51:35;;;;;;;172.73;37.38;;;1.40;99.90;;;;;;5089111;28;20040;-72
2021/12/27 08:54:03;;;;;;;157.60;34.67;;;1.50;99.90;;;;;;5088500;28;20044;-72
2021/12/27 08:56:28;;;;;;;156.25;34.55;;;1.50;99.90;;;;;;5071297;28;20505;-72
2021/12/27 08:58:54;;;;;;;168.00;36.08;;;1.50;99.90;;;;;;5097845;28;20040;-72
2021/12/27 09:01:20;;;;;;;163.70;35.95;;;1.50;99.90;;;;;;5088353;28;20036;-71
2021/12/27 09:03:46;;;;;;;146.32;33.50;;;1.60;99.90;;;;;;5088691;28;20032;-72
2021/12/27 09:06:11;;;;;;;192.55;39.35;;;1.60;99.90;;;;;;5101488;28;20036;-72
2021/12/27 09:08:37;;;;;;;168.32;37.13;;;1.60;99.90;;;;;;5088539;28;20521;-72
2021/12/27 09:11:03;;;;;;;167.73;35.55;;;1.60;99.90;;;;;;5098202;28;20044;-72
2021/12/27 09:13:30;;;;;;;166.40;36.08;;;1.60;99.90;;;;;;5093766;28;20032;-72
2021/12/27 09:15:59;;;;;;;158.80;36.45;;;1.60;99.90;;;;;;5097201;28;20043;-72
2021/12/27 09:18:24;;;;;;;161.73;36.08;;;1.70;99.90;;;;;;5100300;28;20118;-72
2021/12/27 09:20:50;;;;;;;164.05;35.65;;;1.70;99.90;;;;;;5104194;28;20115;-72
2021/12/27 09:23:16;;;;;;;175.30;36.00;;;1.70;99.90;;;;;;5097952;28;20103;-72
2021/12/27 09:25:43;;;;;;;169.70;34.70;;;1.70;99.90;;;;;;5109061;28;20036;-71
2021/12/27 09:28:09;;;;;;;185.05;36.33;;;1.80;99.90;;;;;;5092607;28;20437;-71
2021/12/27 09:30:36;;;;;;;170.18;34.13;;;1.80;99.90;;;;;;5089161;28;20036;-71
2021/12/27 09:33:02;;;;;;;171.57;35.63;;;1.80;99.90;;;;;;5090291;28;20127;-71
2021/12/27 09:35:27;;;;;;;164.02;35.00;;;1.80;99.90;;;;;;5106734;28;20126;-71
2021/12/27 09:37:53;;;;;;;182.48;36.78;;;1.80;99.90;;;;;;5097339;28;20055;-71
2021/12/27 09:40:19;;;;;;;175.75;35.47;;;1.90;99.90;;;;;;5089438;28;20067;-71
2021/12/27 09:42:44;;;;;;;163.63;35.40;;;1.80;99.90;;;;;;5088388;28;20040;-71
2021/12/27 09:45:10;;;;;;;175.27;35.92;;;1.90;99.90;;;;;;5085332;28;20506;-71
2021/12/27 09:47:36;;;;;;;168.18;35.33;;;1.90;99.90;;;;;;5099862;28;20051;-72
2021/12/27 09:50:04;;;;;;;166.48;36.38;;;2.00;99.90;;;;;;5094214;28;20047;-71
2021/12/27 09:52:30;;;;;;;159.32;35.45;;;2.00;99.90;;;;;;5091684;28;20058;-71
2021/12/27 09:54:56;;;;;;;173.85;35.20;;;2.10;99.90;;;;;;5099285;28;20047;-71
2021/12/27 09:57:22;;;;;;;161.80;35.65;;;2.10;99.90;;;;;;5093958;28;20406;-71
2021/12/27 09:59:47;;;;;;;195.25;37.38;;;2.20;99.90;;;;;;5102572;28;20028;-71
2021/12/27 10:02:13;;;;;;;182.38;35.35;;;2.20;99.90;;;;;;5107257;28;20036;-70
2021/12/27 10:04:38;;;;;;;220.40;37.20;;;2.20;99.90;;;;;;5089857;28;20047;-69
2021/12/27 10:07:04;;;;;;;166.10;35.58;;;2.30;99.90;;;;;;5092348;28;20035;-69
2021/12/27 10:09:33;;;;;;;160.43;35.53;;;2.30;99.90;;;;;;5087666;28;20127;-70
2021/12/27 10:12:02;;;;;;;170.27;33.80;;;2.30;99.90;;;;;;5094461;28;20112;-70
2021/12/27 10:14:27;;;;;;;165.50;34.67;;;2.40;99.90;;;;;;5088530;28;20028;-70
2021/12/27 10:17:04;;;;;;;154.00;35.25;;;2.40;99.90;;;;;;5097921;28;20033;-70
2021/12/27 10:19:29;;;;;;;175.20;36.60;;;2.40;99.90;;;;;;5082356;28;20292;-70
2021/12/27 10:21:55;;;;;;;195.18;37.75;;;2.50;99.90;;;;;;5091747;28;20048;-70
2021/12/27 10:24:28;;;;;;;177.70;36.92;;;2.50;99.90;;;;;;5094024;28;20494;-70
2021/12/27 10:26:56;;;;;;;166.50;35.63;;;2.60;99.90;;;;;;5082001;28;20043;-70
2021/12/27 10:29:28;;;;;;;166.10;37.80;;;2.60;99.90;;;;;;5097413;28;20543;-70
2021/12/27 10:32:16;;;;;;;161.77;35.17;;;2.70;99.90;;;;;;5087144;28;20151;-69
2021/12/27 10:34:43;;;;;;;174.27;37.67;;;2.70;99.90;;;;;;5089326;28;20043;-69
2021/12/27 10:37:25;;;;;;;179.82;36.42;;;2.80;99.90;;;;;;5089870;28;20069;-69
2021/12/27 10:39:57;;;;;;;176.00;35.53;;;2.80;99.90;;;;;;5088125;28;20040;-69
2021/12/27 10:42:31;;;;;;;168.43;34.92;;;2.90;99.90;;;;;;5085220;28;20040;-69
2021/12/27 10:45:00;;;;;;;176.18;36.03;;;2.90;99.90;;;;;;5086800;28;20036;-70
2021/12/27 10:47:29;;;;;;;168.63;35.72;;;3.00;99.90;;;;;;5089219;28;20088;-69
2021/12/27 10:50:02;;;;;;;190.02;37.08;;;3.10;99.90;;;;;;5086266;28;20541;-69
2021/12/27 10:52:40;;;;;;;;;;;3.10;99.90;;;;;;5089401;28;20429;-69
2021/12/27 10:55:06;;;;;;;150.65;35.72;;;3.20;99.90;;;;;;5087852;28;19923;-69
2021/12/27 10:57:32;;;;;;;242.05;40.58;;;3.20;99.90;;;;;;5078799;28;20514;-69
2021/12/27 11:00:16;;;;;;;159.73;35.63;;;3.20;99.90;;;;;;5081105;28;20118;-68
2021/12/27 11:02:42;;;;;;;213.88;37.58;;;3.30;99.90;;;;;;5079500;28;20045;-69
2021/12/27 11:05:26;;;;;;;176.32;36.05;;;3.30;99.90;;;;;;5098740;28;20048;-68
2021/12/27 11:07:54;;;;;;;207.82;37.42;;;3.30;99.90;;;;;;5087828;28;20040;-69
2021/12/27 11:10:21;;;;;;;187.02;37.45;;;3.30;99.90;;;;;;5088011;28;20105;-69
2021/12/27 11:12:50;;;;;;;193.57;37.83;;;3.30;99.90;;;;;;5087799;28;20437;-69
2021/12/27 11:15:17;;;;;;;183.82;37.70;;;3.30;99.90;;;;;;5071632;28;20048;-69
2021/12/27 11:17:43;;;;;;;192.27;35.92;;;3.30;99.90;;;;;;5104845;28;20165;-69
2021/12/27 11:20:10;;;;;;;179.43;37.33;;;3.30;99.90;;;;;;5088624;28;20025;-69
2021/12/27 11:22:41;;;;;;;169.18;35.20;;;3.30;99.90;;;;;;5088939;28;20581;-69
2021/12/27 11:25:19;;;;;;;181.13;36.35;;;3.20;99.90;;;;;;5097710;28;20040;-69
2021/12/27 11:27:44;;;;;;;220.02;38.85;;;3.20;99.90;;;;;;5088443;28;20084;-69
2021/12/27 11:30:12;;;;;;;198.20;37.80;;;3.20;99.90;;;;;;5095590;28;20379;-69
2021/12/27 11:32:58;;;;;;;202.88;37.88;;;3.30;99.90;;;;;;5087082;28;20040;-69
2021/12/27 11:35:23;;;;;;;220.15;36.10;;;3.30;99.90;;;;;;5090475;28;20058;-69
2021/12/27 11:37:49;;;;;;;198.85;39.25;;;3.30;99.90;;;;;;5088658;28;20453;-69
2021/12/27 11:40:16;;;;;;;189.40;36.60;;;3.30;99.90;;;;;;5069311;28;20073;-69
2021/12/27 11:42:56;;;;;;;210.88;39.28;;;3.40;99.90;;;;;;5090978;28;20040;-68
2021/12/27 11:45:41;;;;;;;207.52;38.97;;;3.40;99.90;;;;;;5073218;28;20044;-69
2021/12/27 11:48:09;;;;;;;199.80;37.92;;;3.40;99.90;;;;;;5089139;28;20054;-69
2021/12/27 11:50:58;;;;;;;201.73;38.40;;;3.40;99.90;;;;;;5089010;28;20040;-69
2021/12/27 11:53:27;;;;;;;193.80;38.28;;;3.40;99.90;;;;;;5089408;28;20046;-69
2021/12/27 11:55:54;;;;;;;197.90;38.30;;;3.40;99.90;;;;;;5069727;28;20041;-69
2021/12/27 11:58:40;;;;;;;205.15;38.50;;;3.40;99.90;;;;;;5099276;28;20127;-70
2021/12/27 12:01:21;;;;;;;211.13;37.75;;;3.50;99.90;;;;;;5079915;28;20542;-69
2021/12/27 12:03:48;;;;;;;212.13;37.80;;;3.50;99.90;;;;;;5102669;28;20093;-69
2021/12/27 12:06:39;;;;;;;184.43;36.17;;;3.60;99.90;;;;;;5083499;28;20086;-70
2021/12/27 12:09:20;;;;;;;207.45;40.00;;;3.70;99.90;;;;;;5087145;28;20079;-69
2021/12/27 12:12:00;;;;;;;188.27;36.35;;;3.70;99.90;;;;;;5099267;28;20398;-70
2021/12/27 12:14:31;;;;;;;176.02;37.80;;;3.70;99.90;;;;;;5087756;28;20118;-68
2021/12/27 12:16:58;;;;;;;211.05;38.92;;;3.70;99.90;;;;;;5087200;28;20127;-69
2021/12/27 12:19:48;;;;;;;185.60;36.38;;;3.70;99.90;;;;;;5088283;28;20047;-69
2021/12/27 12:22:42;;;;;;;175.27;35.45;;;3.70;99.90;;;;;;5059441;28;20040;-69
2021/12/27 12:25:19;;;;;;;192.20;37.05;;;3.80;99.90;;;;;;5067831;28;20407;-69
2021/12/27 12:28:00;;;;;;;206.38;40.10;;;3.80;99.90;;;;;;5067638;28;20491;-69
2021/12/27 12:30:32;;;;;;;221.98;41.15;;;3.80;99.90;;;;;;5087037;28;20047;-69
2021/12/27 12:33:12;;;;;;;;;;;3.90;99.90;;;;;;5087350;28;20043;-69
2021/12/27 12:35:48;;;;;;;184.68;38.85;;;3.90;99.90;;;;;;5088817;28;20407;-69
2021/12/27 12:38:25;;;;;;;209.63;42.72;;;4.00;99.90;;;;;;5080298;28;20041;-69